Time;durP1;ratioP1;P1;durP2;ratioP2;P2;SDS_P1;SDS_P2;PMS_P1;PMS_P2;Temp;Humidity;BMP_temperature;BMP_pressure;BME280_temperature;BME280_humidity;BME280_pressure;Samples;Min_cycle;Max_cycle;Signal;HPM_P1;HPM_P2
2023/04/04 00:01:51;;;;;;;3.13;1.63;;;;;;;;;;4880622;28;20546;-69
2023/04/04 00:04:16;;;;;;;3.77;1.70;;;;;;;;;;4886121;28;20213;-69
2023/04/04 00:06:44;;;;;;;3.20;1.70;;;;;;;;;;4884956;28;20186;-70
2023/04/04 00:09:09;;;;;;;2.90;1.90;;;;;;;;;;4888370;28;20203;-69
2023/04/04 00:11:35;;;;;;;2.27;1.70;;;;;;;;;;4887298;28;20469;-69
2023/04/04 00:14:01;;;;;;;2.67;1.80;;;;;;;;;;4884087;28;20638;-70
2023/04/04 00:16:26;;;;;;;3.17;1.67;;;;;;;;;;4882226;28;20187;-70
2023/04/04 00:18:51;;;;;;;5.03;1.97;;;;;;;;;;4885823;28;20441;-70
2023/04/04 00:21:17;;;;;;;2.53;2.00;;;;;;;;;;4880365;28;20226;-69
2023/04/04 00:23:42;;;;;;;3.97;1.87;;;;;;;;;;4898916;28;20201;-69
2023/04/04 00:26:07;;;;;;;2.23;1.70;;;;;;;;;;4885519;28;20181;-70
2023/04/04 00:28:32;;;;;;;3.47;1.87;;;;;;;;;;4885900;28;20746;-69
2023/04/04 00:30:59;;;;;;;3.43;1.60;;;;;;;;;;4884269;28;20213;-69
2023/04/04 00:33:24;;;;;;;2.23;1.40;;;;;;;;;;4878320;28;20559;-69
2023/04/04 00:35:50;;;;;;;3.43;1.73;;;;;;;;;;4881321;28;20442;-69
2023/04/04 00:38:15;;;;;;;3.70;2.10;;;;;;;;;;4886297;28;20212;-69
2023/04/04 00:40:46;;;;;;;1.90;1.60;;;;;;;;;;4885798;28;20260;-69
2023/04/04 00:43:12;;;;;;;5.50;2.00;;;;;;;;;;4892940;28;20264;-70
2023/04/04 00:45:37;;;;;;;3.90;1.67;;;;;;;;;;4890803;28;20438;-70
2023/04/04 00:48:03;;;;;;;2.33;1.67;;;;;;;;;;4889606;28;20908;-70
2023/04/04 00:50:30;;;;;;;2.43;1.53;;;;;;;;;;4885345;28;20304;-70
2023/04/04 00:52:55;;;;;;;5.90;2.00;;;;;;;;;;4883205;29;20205;-69
2023/04/04 00:55:21;;;;;;;3.80;1.90;;;;;;;;;;4880758;28;20446;-69
2023/04/04 00:57:46;;;;;;;2.80;1.80;;;;;;;;;;4884385;28;20298;-70
2023/04/04 01:00:13;;;;;;;2.20;1.50;;;;;;;;;;4882472;28;20550;-70
2023/04/04 01:02:38;;;;;;;3.03;1.90;;;;;;;;;;4885991;28;20554;-70
2023/04/04 01:05:04;;;;;;;4.57;1.93;;;;;;;;;;4883123;28;20437;-70
2023/04/04 01:07:30;;;;;;;2.90;1.87;;;;;;;;;;4884048;28;20190;-70
2023/04/04 01:09:56;;;;;;;2.30;1.50;;;;;;;;;;4880852;28;20449;-70
2023/04/04 01:12:22;;;;;;;3.87;1.90;;;;;;;;;;4881772;28;20196;-69
2023/04/04 01:14:47;;;;;;;2.97;1.80;;;;;;;;;;4887705;28;20537;-70
2023/04/04 01:17:13;;;;;;;3.10;1.90;;;;;;;;;;4883262;28;20236;-69
2023/04/04 01:19:52;;;;;;;3.03;1.93;;;;;;;;;;4884651;28;20272;-70
2023/04/04 01:22:18;;;;;;;3.37;1.67;;;;;;;;;;4897063;28;20252;-69
2023/04/04 01:24:45;;;;;;;2.83;1.63;;;;;;;;;;4883262;28;21010;-70
2023/04/04 01:27:10;;;;;;;3.33;2.00;;;;;;;;;;4882928;28;20465;-70
2023/04/04 01:29:36;;;;;;;4.17;1.63;;;;;;;;;;4887350;28;20524;-70
2023/04/04 01:32:10;;;;;;;3.63;1.33;;;;;;;;;;4882092;28;20216;-69
2023/04/04 01:34:41;;;;;;;3.10;1.83;;;;;;;;;;4884722;28;20193;-69
2023/04/04 01:37:11;;;;;;;3.03;1.70;;;;;;;;;;4887069;28;20465;-69
2023/04/04 01:39:44;;;;;;;6.10;1.70;;;;;;;;;;4884614;28;20435;-70
2023/04/04 01:42:11;;;;;;;3.90;2.20;;;;;;;;;;4884840;28;20438;-70
2023/04/04 01:44:36;;;;;;;3.23;1.70;;;;;;;;;;4878836;28;20516;-70
2023/04/04 01:47:04;;;;;;;3.03;2.10;;;;;;;;;;4879237;28;20608;-70
2023/04/04 01:49:29;;;;;;;4.00;1.90;;;;;;;;;;4895345;28;20251;-69
2023/04/04 01:51:55;;;;;;;8.20;1.93;;;;;;;;;;4885747;28;20543;-70
2023/04/04 01:54:21;;;;;;;4.00;1.97;;;;;;;;;;4896217;28;20185;-69
2023/04/04 01:56:46;;;;;;;3.97;2.33;;;;;;;;;;4890624;28;20204;-70
2023/04/04 01:59:12;;;;;;;4.60;2.00;;;;;;;;;;4879815;28;20186;-70
2023/04/04 02:01:37;;;;;;;4.00;1.93;;;;;;;;;;4878313;28;20260;-69
2023/04/04 02:04:03;;;;;;;2.60;1.77;;;;;;;;;;4877845;28;20635;-70
2023/04/04 02:06:29;;;;;;;3.07;2.13;;;;;;;;;;4880243;28;20189;-69
2023/04/04 02:08:55;;;;;;;3.40;1.80;;;;;;;;;;4893153;28;20185;-70
2023/04/04 02:11:21;;;;;;;2.97;1.70;;;;;;;;;;4885576;28;20319;-70
2023/04/04 02:13:47;;;;;;;2.37;1.50;;;;;;;;;;4897033;28;20695;-69
2023/04/04 02:16:12;;;;;;;1.97;1.50;;;;;;;;;;4883571;28;20429;-69
2023/04/04 02:18:38;;;;;;;1.73;1.53;;;;;;;;;;4893668;28;20753;-69
2023/04/04 02:21:03;;;;;;;4.20;1.60;;;;;;;;;;4878683;28;20194;-69
2023/04/04 02:23:28;;;;;;;3.67;1.80;;;;;;;;;;4884781;28;20527;-70
2023/04/04 02:25:53;;;;;;;2.67;1.50;;;;;;;;;;4891435;28;20228;-70
2023/04/04 02:28:19;;;;;;;4.73;1.90;;;;;;;;;;4890634;28;20652;-70
2023/04/04 02:30:44;;;;;;;2.83;1.77;;;;;;;;;;4882995;28;20213;-69
2023/04/04 02:33:10;;;;;;;4.47;1.80;;;;;;;;;;4873993;28;22752;-69
2023/04/04 02:35:36;;;;;;;4.10;1.60;;;;;;;;;;4894021;28;20190;-70
2023/04/04 02:38:01;;;;;;;3.40;1.80;;;;;;;;;;4877218;28;20521;-70
2023/04/04 02:40:26;;;;;;;3.40;1.90;;;;;;;;;;4879803;28;20368;-69
2023/04/04 02:42:52;;;;;;;3.07;1.70;;;;;;;;;;4880875;28;20704;-69
2023/04/04 02:45:17;;;;;;;2.30;1.50;;;;;;;;;;4881509;28;20192;-69
2023/04/04 02:47:48;;;;;;;3.97;1.77;;;;;;;;;;4886760;28;20193;-70
2023/04/04 02:50:13;;;;;;;3.00;1.83;;;;;;;;;;4884916;28;20216;-70
2023/04/04 02:52:38;;;;;;;2.80;1.60;;;;;;;;;;4886581;28;20489;-69
2023/04/04 02:55:04;;;;;;;3.67;1.73;;;;;;;;;;4894303;28;20683;-69
2023/04/04 02:57:30;;;;;;;2.73;1.70;;;;;;;;;;4885534;28;20312;-70
2023/04/04 02:59:56;;;;;;;4.17;2.00;;;;;;;;;;4887191;28;20346;-70
2023/04/04 03:02:22;;;;;;;2.10;1.57;;;;;;;;;;4895413;28;20440;-69
2023/04/04 03:04:47;;;;;;;3.63;1.53;;;;;;;;;;4890379;28;20201;-69
2023/04/04 03:07:13;;;;;;;5.73;2.27;;;;;;;;;;4889130;28;20907;-69
2023/04/04 03:09:38;;;;;;;4.13;1.83;;;;;;;;;;4879203;28;20181;-70
2023/04/04 03:12:04;;;;;;;3.33;1.43;;;;;;;;;;4895468;28;20205;-69
2023/04/04 03:14:29;;;;;;;4.77;2.10;;;;;;;;;;4878327;28;20570;-70
2023/04/04 03:16:55;;;;;;;2.10;1.50;;;;;;;;;;4881612;28;20466;-70
2023/04/04 03:19:20;;;;;;;2.20;1.83;;;;;;;;;;4880338;28;20189;-69
2023/04/04 03:21:47;;;;;;;5.73;1.67;;;;;;;;;;4879397;28;20485;-70
2023/04/04 03:24:12;;;;;;;2.47;1.60;;;;;;;;;;4881858;28;20185;-69
2023/04/04 03:26:37;;;;;;;2.43;1.57;;;;;;;;;;4880967;28;21005;-69
2023/04/04 03:29:03;;;;;;;2.40;1.70;;;;;;;;;;4875494;28;20189;-69
2023/04/04 03:31:28;;;;;;;4.13;1.43;;;;;;;;;;4895955;28;20559;-70
2023/04/04 03:33:54;;;;;;;2.00;1.67;;;;;;;;;;4902165;28;20185;-70
2023/04/04 03:36:20;;;;;;;4.33;1.50;;;;;;;;;;4880082;28;20208;-70
2023/04/04 03:38:45;;;;;;;3.40;1.83;;;;;;;;;;4892868;28;20220;-69
2023/04/04 03:41:10;;;;;;;4.30;1.87;;;;;;;;;;4877349;28;20212;-69
2023/04/04 03:43:36;;;;;;;3.77;2.57;;;;;;;;;;4882766;28;20666;-69
2023/04/04 03:46:01;;;;;;;3.00;2.00;;;;;;;;;;4893363;28;20198;-70
2023/04/04 03:48:27;;;;;;;1.90;1.50;;;;;;;;;;4878196;28;20197;-70
2023/04/04 03:50:52;;;;;;;2.97;2.17;;;;;;;;;;4888863;28;20225;-70
2023/04/04 03:53:18;;;;;;;2.60;1.70;;;;;;;;;;4878210;28;20190;-69
2023/04/04 03:55:43;;;;;;;3.60;1.70;;;;;;;;;;4886216;28;20189;-69
2023/04/04 03:58:08;;;;;;;2.53;1.60;;;;;;;;;;4874276;28;20663;-70
2023/04/04 04:00:34;;;;;;;2.53;1.60;;;;;;;;;;4877298;28;20209;-69
2023/04/04 04:02:59;;;;;;;2.33;1.60;;;;;;;;;;4892892;28;20241;-69
2023/04/04 04:05:25;;;;;;;4.13;1.67;;;;;;;;;;4875960;28;20268;-70
2023/04/04 04:07:51;;;;;;;2.70;1.97;;;;;;;;;;4899755;28;20232;-69
2023/04/04 04:10:17;;;;;;;2.83;1.63;;;;;;;;;;4881285;28;20227;-69
2023/04/04 04:12:43;;;;;;;2.57;1.87;;;;;;;;;;4876472;28;20475;-69
2023/04/04 04:15:09;;;;;;;2.53;1.60;;;;;;;;;;4884575;28;20438;-70
2023/04/04 04:17:37;;;;;;;2.23;1.60;;;;;;;;;;4882367;28;20220;-69
2023/04/04 04:20:03;;;;;;;2.30;1.70;;;;;;;;;;4897947;28;20655;-69
2023/04/04 04:22:28;;;;;;;2.67;1.60;;;;;;;;;;4882558;28;20438;-70
2023/04/04 04:24:54;;;;;;;3.27;2.10;;;;;;;;;;4890567;28;20892;-69
2023/04/04 04:27:19;;;;;;;2.63;1.80;;;;;;;;;;4886919;28;20768;-70
2023/04/04 04:29:44;;;;;;;2.60;1.67;;;;;;;;;;4883956;28;20193;-69
2023/04/04 04:32:10;;;;;;;3.80;1.53;;;;;;;;;;4882443;28;20189;-69
2023/04/04 04:34:35;;;;;;;2.77;2.00;;;;;;;;;;4877344;28;20185;-70
2023/04/04 04:37:00;;;;;;;1.67;1.50;;;;;;;;;;4882853;28;20227;-69
2023/04/04 04:39:26;;;;;;;3.57;2.07;;;;;;;;;;4877117;28;20196;-72
2023/04/04 04:41:52;;;;;;;2.40;1.63;;;;;;;;;;4887972;28;20245;-70
2023/04/04 04:44:17;;;;;;;2.30;1.90;;;;;;;;;;4885387;28;21156;-70
2023/04/04 04:46:42;;;;;;;2.73;1.90;;;;;;;;;;4898283;28;20438;-69
2023/04/04 04:49:08;;;;;;;1.97;1.47;;;;;;;;;;4880072;28;20208;-70
2023/04/04 04:51:33;;;;;;;2.60;1.73;;;;;;;;;;4882343;28;20555;-70
2023/04/04 04:53:58;;;;;;;2.27;1.70;;;;;;;;;;4875420;28;20645;-69
2023/04/04 04:56:23;;;;;;;2.30;1.87;;;;;;;;;;4894331;28;20720;-69
2023/04/04 04:58:49;;;;;;;3.70;2.00;;;;;;;;;;4889286;28;20197;-70
2023/04/04 05:01:15;;;;;;;2.20;1.70;;;;;;;;;;4886964;28;20209;-72
2023/04/04 05:03:40;;;;;;;3.53;2.37;;;;;;;;;;4896224;28;20463;-70
2023/04/04 05:06:05;;;;;;;3.83;1.93;;;;;;;;;;4886930;28;20559;-70
2023/04/04 05:08:31;;;;;;;2.60;2.00;;;;;;;;;;4887339;28;20194;-71
2023/04/04 05:10:56;;;;;;;3.00;2.00;;;;;;;;;;4883273;29;20597;-71
2023/04/04 05:13:22;;;;;;;5.40;2.67;;;;;;;;;;4882963;28;21527;-71
2023/04/04 05:15:47;;;;;;;3.40;2.10;;;;;;;;;;4897191;28;20273;-71
2023/04/04 05:18:13;;;;;;;4.00;2.00;;;;;;;;;;4881502;28;20567;-71
2023/04/04 05:20:38;;;;;;;3.47;1.83;;;;;;;;;;4881949;28;20619;-72
2023/04/04 05:23:04;;;;;;;5.00;2.00;;;;;;;;;;4879493;28;20185;-71
2023/04/04 05:25:29;;;;;;;3.93;1.70;;;;;;;;;;4882505;28;20200;-70
2023/04/04 05:27:57;;;;;;;4.57;2.47;;;;;;;;;;4900513;23;20240;-74
2023/04/04 05:30:22;;;;;;;5.70;2.87;;;;;;;;;;4895608;28;20340;-74
2023/04/04 05:32:49;;;;;;;3.03;2.20;;;;;;;;;;4898461;28;20463;-74
2023/04/04 05:35:15;;;;;;;2.40;1.97;;;;;;;;;;4895337;28;20181;-74
2023/04/04 05:37:40;;;;;;;2.90;2.17;;;;;;;;;;4899947;28;20477;-75
2023/04/04 05:40:06;;;;;;;3.50;1.77;;;;;;;;;;4902819;28;20188;-75
2023/04/04 05:42:31;;;;;;;4.70;2.10;;;;;;;;;;4903967;28;20219;-75
2023/04/04 05:44:56;;;;;;;4.67;2.47;;;;;;;;;;4906262;28;20473;-76
2023/04/04 05:47:22;;;;;;;3.33;2.00;;;;;;;;;;4903781;28;20218;-75
2023/04/04 05:49:47;;;;;;;2.20;1.83;;;;;;;;;;4910724;28;20742;-75
2023/04/04 05:52:12;;;;;;;3.90;2.33;;;;;;;;;;4904682;28;20261;-76
2023/04/04 05:54:38;;;;;;;2.80;1.97;;;;;;;;;;4911662;28;20649;-76
2023/04/04 05:57:03;;;;;;;5.73;2.50;;;;;;;;;;4901782;28;20208;-76
2023/04/04 05:59:29;;;;;;;2.87;1.67;;;;;;;;;;4905891;28;20180;-76
2023/04/04 06:01:54;;;;;;;3.03;1.80;;;;;;;;;;4906359;28;20200;-76
2023/04/04 06:04:20;;;;;;;5.40;2.40;;;;;;;;;;4908844;28;20192;-76
2023/04/04 06:06:45;;;;;;;2.90;1.90;;;;;;;;;;4907826;28;20191;-76
2023/04/04 06:09:10;;;;;;;3.97;1.73;;;;;;;;;;4905469;28;20185;-76
2023/04/04 06:11:36;;;;;;;3.47;2.30;;;;;;;;;;4909809;28;20189;-76
2023/04/04 06:14:01;;;;;;;4.37;2.33;;;;;;;;;;4902623;28;20191;-76
2023/04/04 06:16:26;;;;;;;2.90;2.07;;;;;;;;;;4904287;29;20211;-76
2023/04/04 06:18:52;;;;;;;3.13;2.23;;;;;;;;;;4899547;28;20212;-76
2023/04/04 06:21:19;;;;;;;6.33;2.23;;;;;;;;;;4901492;28;20731;-76
2023/04/04 06:23:45;;;;;;;3.40;2.30;;;;;;;;;;4900630;28;20616;-77
2023/04/04 06:26:11;;;;;;;3.43;2.33;;;;;;;;;;4904171;28;20468;-76
2023/04/04 06:28:36;;;;;;;4.00;2.13;;;;;;;;;;4918031;28;20690;-76
2023/04/04 06:31:04;;;;;;;4.93;2.60;;;;;;;;;;4897896;28;22517;-76
2023/04/04 06:33:30;;;;;;;3.07;1.90;;;;;;;;;;4905351;28;20223;-76
2023/04/04 06:35:55;;;;;;;7.20;2.17;;;;;;;;;;4904311;28;21564;-76
2023/04/04 06:38:20;;;;;;;4.63;2.30;;;;;;;;;;4918628;28;20728;-76
2023/04/04 06:40:46;;;;;;;5.07;1.93;;;;;;;;;;4912783;28;20184;-76
2023/04/04 06:43:11;;;;;;;3.00;1.73;;;;;;;;;;4904055;28;20605;-76
2023/04/04 06:45:36;;;;;;;4.60;2.10;;;;;;;;;;4908320;28;20180;-76
2023/04/04 06:48:02;;;;;;;3.33;1.80;;;;;;;;;;4904392;28;20208;-76
2023/04/04 06:50:29;;;;;;;3.67;2.00;;;;;;;;;;4908577;28;20181;-76
2023/04/04 06:52:56;;;;;;;4.43;1.90;;;;;;;;;;4910242;28;20187;-77
2023/04/04 06:55:22;;;;;;;3.13;1.90;;;;;;;;;;4910544;28;20449;-76
2023/04/04 06:57:47;;;;;;;1.70;1.60;;;;;;;;;;4909386;28;21420;-75
2023/04/04 07:00:13;;;;;;;2.20;1.77;;;;;;;;;;4910462;28;20444;-75
2023/04/04 07:02:38;;;;;;;9.40;3.47;;;;;;;;;;4908322;28;20211;-75
2023/04/04 07:05:03;;;;;;;6.13;3.33;;;;;;;;;;4907928;28;20173;-74
2023/04/04 07:07:29;;;;;;;6.80;2.60;;;;;;;;;;4926973;28;20215;-74
2023/04/04 07:09:54;;;;;;;4.20;2.00;;;;;;;;;;4903071;28;20184;-74
2023/04/04 07:12:19;;;;;;;3.37;2.20;;;;;;;;;;4903919;28;20184;-74
2023/04/04 07:14:45;;;;;;;5.00;1.93;;;;;;;;;;4914849;28;20207;-74
2023/04/04 07:17:10;;;;;;;5.87;2.10;;;;;;;;;;4907155;28;20677;-77
2023/04/04 07:19:35;;;;;;;14.43;3.20;;;;;;;;;;4910140;28;20183;-76
2023/04/04 07:22:01;;;;;;;5.83;2.60;;;;;;;;;;4910393;28;20727;-76
2023/04/04 07:24:26;;;;;;;19.00;3.57;;;;;;;;;;4909832;28;20190;-76
2023/04/04 07:26:52;;;;;;;13.03;2.93;;;;;;;;;;4905680;28;20991;-76
2023/04/04 07:29:17;;;;;;;4.07;2.33;;;;;;;;;;4900458;28;20235;-76
2023/04/04 07:31:42;;;;;;;6.83;2.47;;;;;;;;;;4912418;28;20264;-76
2023/04/04 07:34:08;;;;;;;4.73;2.27;;;;;;;;;;4905109;28;20181;-76
2023/04/04 07:36:33;;;;;;;6.67;2.60;;;;;;;;;;4909270;28;20203;-73
2023/04/04 07:38:58;;;;;;;4.60;2.73;;;;;;;;;;4908434;28;20192;-74
2023/04/04 07:41:24;;;;;;;11.63;4.60;;;;;;;;;;4906722;28;20184;-74
2023/04/04 07:43:50;;;;;;;7.60;3.60;;;;;;;;;;4904738;28;20235;-74
2023/04/04 07:46:15;;;;;;;3.30;2.07;;;;;;;;;;4907689;28;20840;-74
2023/04/04 07:48:41;;;;;;;3.73;2.00;;;;;;;;;;4913619;28;20200;-74
2023/04/04 07:51:06;;;;;;;1.87;1.40;;;;;;;;;;4910486;28;20180;-74
2023/04/04 07:53:31;;;;;;;3.07;1.70;;;;;;;;;;4913665;28;20180;-74
2023/04/04 07:55:57;;;;;;;3.70;1.67;;;;;;;;;;4924509;28;20733;-74
2023/04/04 07:58:22;;;;;;;2.37;1.80;;;;;;;;;;4910236;28;20323;-74
2023/04/04 08:00:47;;;;;;;3.47;1.80;;;;;;;;;;4911501;28;20201;-74
2023/04/04 08:03:13;;;;;;;2.83;1.87;;;;;;;;;;4911069;28;20177;-74
2023/04/04 08:05:40;;;;;;;4.87;2.10;;;;;;;;;;4919067;28;20183;-75
2023/04/04 08:08:05;;;;;;;9.50;2.10;;;;;;;;;;4925583;28;20204;-74
2023/04/04 08:10:31;;;;;;;3.47;2.13;;;;;;;;;;4914688;28;20455;-74
2023/04/04 08:12:57;;;;;;;3.63;1.70;;;;;;;;;;4908520;28;20554;-74
2023/04/04 08:15:22;;;;;;;3.43;1.90;;;;;;;;;;4912038;28;20199;-74
2023/04/04 08:17:47;;;;;;;4.00;1.87;;;;;;;;;;4908524;28;20225;-74
2023/04/04 08:20:13;;;;;;;2.67;1.67;;;;;;;;;;4910606;28;20204;-74
2023/04/04 08:22:39;;;;;;;6.47;2.67;;;;;;;;;;4918333;28;20216;-75
2023/04/04 08:25:05;;;;;;;3.93;2.20;;;;;;;;;;4911359;28;20204;-74
2023/04/04 08:27:31;;;;;;;2.43;1.40;;;;;;;;;;4913217;28;20483;-74
2023/04/04 08:29:56;;;;;;;3.57;1.90;;;;;;;;;;4913528;28;20783;-74
2023/04/04 08:32:22;;;;;;;4.27;2.27;;;;;;;;;;4911466;29;20448;-75
2023/04/04 08:34:48;;;;;;;2.40;1.93;;;;;;;;;;4912217;28;21019;-74
2023/04/04 08:37:13;;;;;;;2.83;2.17;;;;;;;;;;4913699;28;20294;-72
2023/04/04 08:39:39;;;;;;;4.87;1.90;;;;;;;;;;4921988;28;20486;-73
2023/04/04 08:42:05;;;;;;;3.03;2.20;;;;;;;;;;4913621;28;20726;-73
2023/04/04 08:44:31;;;;;;;6.23;2.20;;;;;;;;;;4915501;28;20809;-73
2023/04/04 08:46:58;;;;;;;4.20;1.80;;;;;;;;;;4908603;28;20547;-74
2023/04/04 08:49:25;;;;;;;3.30;2.30;;;;;;;;;;4910990;28;20535;-73
2023/04/04 08:51:52;;;;;;;4.20;1.70;;;;;;;;;;4909813;28;20474;-75
2023/04/04 08:54:18;;;;;;;4.97;2.27;;;;;;;;;;4909498;29;20791;-75
2023/04/04 08:56:43;;;;;;;3.33;1.73;;;;;;;;;;4916629;28;20413;-75
2023/04/04 08:59:14;;;;;;;2.70;1.90;;;;;;;;;;4898772;28;20505;-76
2023/04/04 09:01:39;;;;;;;4.70;2.23;;;;;;;;;;4905896;28;20207;-75
2023/04/04 09:04:05;;;;;;;3.47;2.07;;;;;;;;;;4911379;28;20953;-76
2023/04/04 09:06:31;;;;;;;3.83;2.37;;;;;;;;;;4908855;28;20181;-76
2023/04/04 09:08:58;;;;;;;3.57;2.20;;;;;;;;;;4906980;28;20275;-75
2023/04/04 09:11:25;;;;;;;5.03;2.00;;;;;;;;;;4908623;28;20424;-75
2023/04/04 09:13:51;;;;;;;5.57;2.50;;;;;;;;;;4917565;28;20431;-75
2023/04/04 09:16:16;;;;;;;3.60;2.77;;;;;;;;;;4910900;28;20929;-74
2023/04/04 09:18:42;;;;;;;6.23;1.87;;;;;;;;;;4912166;28;20506;-75
2023/04/04 09:21:08;;;;;;;6.67;2.30;;;;;;;;;;4908363;29;20191;-75
2023/04/04 09:23:33;;;;;;;6.30;1.93;;;;;;;;;;4910481;28;20177;-73
2023/04/04 09:25:58;;;;;;;4.40;1.80;;;;;;;;;;4907155;28;20432;-75
2023/04/04 09:28:24;;;;;;;3.70;2.10;;;;;;;;;;4909506;28;20227;-75
2023/04/04 09:30:50;;;;;;;4.27;2.00;;;;;;;;;;4916588;28;20230;-75
2023/04/04 09:33:16;;;;;;;6.57;2.63;;;;;;;;;;4909877;28;20235;-76
2023/04/04 09:35:53;;;;;;;6.27;2.23;;;;;;;;;;4906282;28;20444;-76
2023/04/04 09:38:19;;;;;;;4.30;2.20;;;;;;;;;;4910904;28;20475;-75
2023/04/04 09:40:45;;;;;;;3.20;2.23;;;;;;;;;;4910057;28;20423;-75
2023/04/04 09:43:11;;;;;;;3.30;1.90;;;;;;;;;;4909796;29;20516;-76
2023/04/04 09:45:39;;;;;;;4.90;2.30;;;;;;;;;;4911254;28;20925;-76
2023/04/04 09:48:05;;;;;;;3.53;2.37;;;;;;;;;;4918542;28;20235;-73
2023/04/04 09:50:32;;;;;;;3.77;2.30;;;;;;;;;;4910321;28;20463;-76
2023/04/04 09:52:58;;;;;;;3.43;2.60;;;;;;;;;;4913483;28;20450;-76
2023/04/04 09:55:30;;;;;;;4.10;2.00;;;;;;;;;;4915373;28;20974;-75
2023/04/04 09:57:56;;;;;;;3.50;2.20;;;;;;;;;;4911605;28;20484;-75
2023/04/04 10:00:22;;;;;;;5.50;1.90;;;;;;;;;;4915780;28;20432;-75
2023/04/04 10:02:48;;;;;;;3.40;2.07;;;;;;;;;;4915664;28;20315;-75
2023/04/04 10:05:13;;;;;;;3.37;1.90;;;;;;;;;;4919253;28;20181;-75
2023/04/04 10:07:39;;;;;;;3.30;1.87;;;;;;;;;;4916639;28;20499;-75
2023/04/04 10:10:05;;;;;;;4.03;2.00;;;;;;;;;;4911657;28;20203;-76
2023/04/04 10:12:32;;;;;;;5.30;2.03;;;;;;;;;;4912793;28;20191;-74
2023/04/04 10:15:00;;;;;;;3.03;1.93;;;;;;;;;;4912282;28;20420;-76
2023/04/04 10:17:44;;;;;;;3.77;2.40;;;;;;;;;;4909239;28;20503;-75
2023/04/04 10:20:10;;;;;;;2.77;1.87;;;;;;;;;;4915626;28;20432;-75
2023/04/04 10:22:36;;;;;;;3.17;2.07;;;;;;;;;;4914108;28;20435;-75
2023/04/04 10:25:02;;;;;;;5.30;2.17;;;;;;;;;;4914905;28;20188;-77
2023/04/04 10:27:27;;;;;;;4.83;2.10;;;;;;;;;;4909710;28;20479;-76
2023/04/04 10:29:53;;;;;;;2.87;1.87;;;;;;;;;;4905416;28;20668;-75
2023/04/04 10:32:37;;;;;;;4.50;1.80;;;;;;;;;;4910310;28;20204;-75
2023/04/04 10:35:04;;;;;;;5.90;1.83;;;;;;;;;;4904491;28;20188;-75
2023/04/04 10:37:43;;;;;;;4.60;2.17;;;;;;;;;;4923946;28;20468;-76
2023/04/04 10:40:09;;;;;;;4.47;2.10;;;;;;;;;;4906346;28;20424;-74
2023/04/04 10:42:40;;;;;;;3.30;1.90;;;;;;;;;;4906768;28;20453;-75
2023/04/04 10:45:07;;;;;;;3.13;1.50;;;;;;;;;;4905207;28;20459;-74
2023/04/04 10:47:33;;;;;;;2.97;1.60;;;;;;;;;;4907421;28;20484;-75
2023/04/04 10:49:58;;;;;;;3.03;1.90;;;;;;;;;;4909834;29;21043;-76
2023/04/04 10:52:26;;;;;;;2.83;1.57;;;;;;;;;;4907271;28;20664;-76
2023/04/04 10:54:53;;;;;;;2.13;1.40;;;;;;;;;;4912802;28;20275;-75
2023/04/04 10:57:18;;;;;;;8.83;2.53;;;;;;;;;;4905415;28;20486;-75
2023/04/04 11:00:04;;;;;;;3.60;1.70;;;;;;;;;;4905750;28;20432;-76
2023/04/04 11:02:51;;;;;;;2.83;1.40;;;;;;;;;;4887145;28;20664;-75
2023/04/04 11:05:23;;;;;;;3.27;1.90;;;;;;;;;;4917288;28;20436;-75
2023/04/04 11:08:04;;;;;;;1.73;1.20;;;;;;;;;;4900260;28;21122;-75
2023/04/04 11:10:36;;;;;;;5.07;1.90;;;;;;;;;;4906216;28;20435;-75
2023/04/04 11:13:08;;;;;;;3.13;1.60;;;;;;;;;;4914658;28;20436;-76
2023/04/04 11:15:53;;;;;;;1.70;1.40;;;;;;;;;;4919265;28;20440;-76
2023/04/04 11:18:19;;;;;;;1.67;1.40;;;;;;;;;;4905819;28;20927;-75
2023/04/04 11:20:46;;;;;;;2.80;1.53;;;;;;;;;;4908595;28;20810;-75
2023/04/04 11:23:20;;;;;;;2.77;1.70;;;;;;;;;;4908246;28;21096;-75
2023/04/04 11:25:52;;;;;;;1.87;1.20;;;;;;;;;;4902889;28;20445;-75
2023/04/04 11:28:42;;;;;;;5.50;1.70;;;;;;;;;;4925166;28;20475;-76
2023/04/04 11:31:17;;;;;;;5.03;2.23;;;;;;;;;;4907364;28;20501;-77
2023/04/04 11:33:56;;;;;;;3.27;1.73;;;;;;;;;;4912885;28;20446;-77
2023/04/04 11:36:36;;;;;;;2.00;1.30;;;;;;;;;;4903696;28;20440;-76
2023/04/04 11:39:19;;;;;;;2.20;1.30;;;;;;;;;;4901843;28;20550;-77
2023/04/04 11:41:51;;;;;;;5.60;2.00;;;;;;;;;;4908515;28;20905;-77
2023/04/04 11:44:16;;;;;;;3.80;1.47;;;;;;;;;;4900597;28;20502;-76
2023/04/04 11:46:42;;;;;;;1.67;1.33;;;;;;;;;;4917441;28;20433;-75
2023/04/04 11:49:09;;;;;;;2.70;1.60;;;;;;;;;;4907999;28;20212;-75
2023/04/04 12:23:22;;;;;;;4.07;1.80;;;;;;;8.87;100.00;102962.41;5066407;27;20418;-68
2023/04/04 12:25:52;;;;;;;2.80;1.77;;;;;;;9.26;100.00;102941.94;5067929;28;20460;-68
2023/04/04 12:28:18;;;;;;;2.50;1.70;;;;;;;9.65;100.00;102956.19;5073358;28;20439;-68
2023/04/04 12:30:45;;;;;;;3.10;1.70;;;;;;;9.83;100.00;102945.59;5074118;28;20928;-70
2023/04/04 12:33:11;;;;;;;3.57;2.00;;;;;;;9.73;100.00;102926.84;5074787;28;20534;-70
2023/04/04 12:35:36;;;;;;;3.67;1.70;;;;;;;9.96;100.00;102922.03;5076532;28;20421;-70
2023/04/04 12:38:06;;;;;;;2.20;1.70;;;;;;;10.18;100.00;102942.31;5073864;28;20416;-71
2023/04/04 12:40:35;;;;;;;2.27;1.57;;;;;;;10.01;100.00;102899.28;5084615;28;20183;-70
2023/04/04 12:43:03;;;;;;;2.90;1.60;;;;;;;10.21;100.00;102945.69;5080230;28;20460;-70
2023/04/04 12:45:28;;;;;;;4.60;1.77;;;;;;;9.97;100.00;102930.91;5063976;28;20443;-68
2023/04/04 12:47:55;;;;;;;2.70;1.93;;;;;;;9.59;100.00;102932.63;5069667;28;20429;-69
2023/04/04 12:50:23;;;;;;;3.03;2.03;;;;;;;10.03;100.00;102913.41;5071930;28;20270;-69
2023/04/04 13:04:21;;;;;;;3.03;1.83;;;;;;;9.93;100.00;102870.53;5092903;27;21088;-67
2023/04/04 13:06:46;;;;;;;3.37;2.00;;;;;;;10.40;100.00;102917.00;5104530;22;20459;-70
2023/04/04 13:09:17;;;;;;;4.07;1.80;;;;;;;10.69;100.00;102907.13;5032319;28;20448;-72
2023/04/04 13:11:57;;;;;;;2.33;1.50;;;;;;;9.33;100.00;102825.22;5032846;28;20272;-72
2023/04/04 13:14:23;;;;;;;4.17;1.90;;;;;;;10.22;100.00;102909.84;5018981;28;20913;-71
2023/04/04 13:17:06;;;;;;;3.83;2.17;;;;;;;10.18;100.00;102880.63;5029082;28;20486;-71
2023/04/04 13:19:32;;;;;;;3.50;2.30;;;;;;;10.62;100.00;102897.00;5032856;28;20272;-71
2023/04/04 13:21:59;;;;;;;3.40;2.60;;;;;;;10.57;100.00;102875.13;5031377;28;20512;-72
2023/04/04 13:24:24;;;;;;;3.97;2.23;;;;;;;10.67;100.00;102872.38;5031438;28;20188;-71
2023/04/04 13:26:50;;;;;;;2.43;1.67;;;;;;;10.58;100.00;102866.06;5031335;28;20449;-71
2023/04/04 13:29:15;;;;;;;4.00;2.03;;;;;;;10.48;100.00;102883.25;5034312;28;20187;-71
2023/04/04 13:31:41;;;;;;;6.63;3.07;;;;;;;10.36;100.00;102878.06;5031969;28;20188;-71
2023/04/04 13:34:06;;;;;;;4.00;2.13;;;;;;;10.22;100.00;102864.25;5017789;28;20246;-71
2023/04/04 13:36:31;;;;;;;4.27;2.00;;;;;;;10.31;100.00;102834.72;5030603;28;20549;-72
2023/04/04 13:38:57;;;;;;;4.30;2.00;;;;;;;10.04;100.00;102838.22;5031674;28;20184;-71
2023/04/04 13:41:22;;;;;;;2.70;1.80;;;;;;;10.40;100.00;102851.78;5034874;28;20188;-71
2023/04/04 13:43:48;;;;;;;2.40;1.87;;;;;;;10.14;100.00;102862.28;5033438;28;20666;-71
2023/04/04 13:46:14;;;;;;;3.23;2.10;;;;;;;9.83;100.00;102859.00;5034789;28;20217;-72
2023/04/04 13:48:40;;;;;;;5.67;2.47;;;;;;;9.36;100.00;102741.91;5033535;28;20188;-71
2023/04/04 13:51:06;;;;;;;5.30;3.07;;;;;;;9.53;100.00;102842.13;5031360;28;20430;-71
2023/04/04 13:53:31;;;;;;;5.07;2.27;;;;;;;8.95;100.00;102848.31;5033537;28;20483;-72
2023/04/04 13:55:57;;;;;;;4.13;2.40;;;;;;;9.62;100.00;102845.78;5033445;28;20204;-71
2023/04/04 13:58:22;;;;;;;5.27;2.17;;;;;;;9.61;100.00;102844.94;5035532;28;20181;-71
2023/04/04 14:00:48;;;;;;;4.80;2.07;;;;;;;9.26;100.00;102827.63;5035684;28;20256;-72
2023/04/04 14:03:15;;;;;;;3.23;2.00;;;;;;;9.85;100.00;102816.81;5033929;28;20287;-71
2023/04/04 14:05:41;;;;;;;6.47;2.33;;;;;;;10.12;100.00;102835.59;5019472;28;20932;-71
2023/04/04 14:08:07;;;;;;;2.87;2.03;;;;;;;10.21;100.00;102808.91;5012537;28;20833;-71
2023/04/04 14:10:32;;;;;;;3.67;2.20;;;;;;;10.49;100.00;102813.31;4984181;28;20809;-72
2023/04/04 14:12:58;;;;;;;3.97;1.90;;;;;;;10.29;100.00;102817.09;5014002;28;20465;-71
2023/04/04 14:15:23;;;;;;;3.47;1.90;;;;;;;10.39;100.00;102802.66;4996141;28;20596;-72
2023/04/04 14:17:49;;;;;;;3.80;1.90;;;;;;;9.69;100.00;102720.94;5015451;28;20209;-71
2023/04/04 14:20:14;;;;;;;3.33;2.23;;;;;;;10.03;100.00;102804.31;5017767;28;20189;-71
2023/04/04 14:22:40;;;;;;;5.20;2.70;;;;;;;10.27;100.00;102802.97;5012305;28;20200;-71
2023/04/04 14:25:06;;;;;;;3.07;1.87;;;;;;;10.50;100.00;102792.69;5011527;28;20385;-71
2023/04/04 14:27:31;;;;;;;3.63;2.20;;;;;;;10.38;100.00;102818.88;4985352;28;20247;-71
2023/04/04 14:29:57;;;;;;;4.40;2.30;;;;;;;10.29;100.00;102809.03;5005406;28;20189;-72
2023/04/04 14:32:23;;;;;;;3.60;2.00;;;;;;;10.23;100.00;102807.78;4995817;28;20186;-71
2023/04/04 14:34:49;;;;;;;1.97;1.77;;;;;;;10.00;100.00;102812.66;5013626;28;20192;-72
2023/04/04 14:37:15;;;;;;;4.07;2.63;;;;;;;10.36;100.00;102816.34;5017410;28;20510;-71
2023/04/04 14:39:41;;;;;;;7.17;2.73;;;;;;;10.46;100.00;102813.63;4999260;28;20193;-72
2023/04/04 14:42:06;;;;;;;4.67;2.30;;;;;;;10.50;100.00;102795.38;5010879;28;20546;-71
2023/04/04 14:44:32;;;;;;;4.50;2.00;;;;;;;10.43;100.00;102808.56;5011362;28;20272;-71